createdAt,value
2019-02-20T00:02:35.759Z,24.47
2019-02-20T00:05:40.944Z,26.43
2019-02-20T00:08:46.091Z,34.57
2019-02-20T00:11:51.388Z,33.17
2019-02-20T00:14:56.520Z,91.03
2019-02-20T00:18:01.703Z,195.37
2019-02-20T00:21:06.874Z,253.93
2019-02-20T00:24:12.128Z,197.50
2019-02-20T00:27:17.326Z,251.37
2019-02-20T00:30:22.533Z,242.03
2019-02-20T00:33:27.670Z,71.87
2019-02-20T00:36:32.903Z,76.67
2019-02-20T00:39:38.110Z,70.50
2019-02-20T00:42:43.455Z,237.60
2019-02-20T00:45:58.232Z,106.27
2019-02-20T00:49:11.125Z,99.43
2019-02-20T00:52:26.184Z,35.37
2019-02-20T00:55:32.309Z,97.43
2019-02-20T00:58:37.451Z,47.87
2019-02-20T01:01:42.732Z,77.50
2019-02-20T01:04:47.859Z,58.90
2019-02-20T01:07:54.085Z,70.10
2019-02-20T01:10:59.226Z,81.07
2019-02-20T01:14:04.570Z,78.77
2019-02-20T01:17:09.731Z,79.73
2019-02-20T01:20:14.924Z,221.00
2019-02-20T01:23:20.129Z,195.93
2019-02-20T01:26:25.313Z,183.50
2019-02-20T01:29:30.463Z,155.47
2019-02-20T01:32:35.591Z,235.20
2019-02-20T01:35:40.793Z,187.33
2019-02-20T01:38:45.982Z,196.47
2019-02-20T01:41:51.194Z,84.77
2019-02-20T01:44:56.363Z,65.60
2019-02-20T01:48:01.503Z,73.03
2019-02-20T01:51:06.815Z,105.63
2019-02-20T01:54:11.907Z,60.03
2019-02-20T01:57:17.078Z,90.03
2019-02-20T02:00:22.218Z,64.50
2019-02-20T02:03:27.345Z,67.80
2019-02-20T02:06:32.503Z,127.87
2019-02-20T02:09:37.694Z,112.00
2019-02-20T02:12:42.889Z,127.47
2019-02-20T02:15:48.061Z,116.67
2019-02-20T02:19:00.148Z,114.57
2019-02-20T02:22:05.349Z,175.30
2019-02-20T02:25:10.613Z,300.37
2019-02-20T02:28:15.708Z,176.63
2019-02-20T02:31:20.822Z,198.67
2019-02-20T02:34:27.045Z,273.60
2019-02-20T02:37:32.242Z,182.60
2019-02-20T02:40:37.458Z,164.90
2019-02-20T02:43:42.536Z,223.03
2019-02-20T02:46:47.754Z,165.03
2019-02-20T02:49:52.899Z,149.70
2019-02-20T02:52:58.039Z,93.17
2019-02-20T02:56:03.257Z,108.63
2019-02-20T02:59:08.484Z,80.97
2019-02-20T03:02:13.657Z,54.87
2019-02-20T03:05:18.811Z,58.73
2019-02-20T03:08:24.024Z,56.03
2019-02-20T03:11:29.220Z,56.17
2019-02-20T03:14:34.361Z,48.30
2019-02-20T03:17:39.529Z,54.93
2019-02-20T03:20:44.660Z,33.37
2019-02-20T03:23:49.820Z,44.33
2019-02-20T03:26:54.960Z,52.93
2019-02-20T03:30:00.466Z,47.33
2019-02-20T03:33:07.530Z,94.50
2019-02-20T03:36:12.665Z,65.13
2019-02-20T03:39:17.833Z,55.87
2019-02-20T03:42:23.016Z,50.83
2019-02-20T03:45:28.194Z,64.93
2019-02-20T03:48:33.559Z,64.37
2019-02-20T03:51:38.666Z,53.47
2019-02-20T03:54:43.781Z,35.43
2019-02-20T03:57:48.953Z,65.93
2019-02-20T04:00:54.071Z,65.13
2019-02-20T04:03:59.222Z,66.30
2019-02-20T04:07:04.332Z,49.07
2019-02-20T04:10:09.476Z,47.23
2019-02-20T04:13:14.671Z,39.80
2019-02-20T04:16:19.905Z,92.87
2019-02-20T04:19:25.082Z,43.27
2019-02-20T04:22:30.238Z,22.73
2019-02-20T04:25:35.358Z,28.57
2019-02-20T04:28:40.536Z,34.93
2019-02-20T04:31:45.709Z,23.93
2019-02-20T04:34:51.934Z,26.47
2019-02-20T04:37:57.075Z,40.97
2019-02-20T04:41:02.317Z,42.60
2019-02-20T04:44:07.537Z,37.53
2019-02-20T04:47:12.760Z,49.07
2019-02-20T04:50:18.970Z,49.23
2019-02-20T04:53:24.207Z,34.40
2019-02-20T04:56:30.454Z,37.50
2019-02-20T04:59:35.579Z,56.53
2019-02-20T05:02:40.767Z,40.50
2019-02-20T05:05:45.981Z,82.57
2019-02-20T05:08:51.139Z,55.13
2019-02-20T05:11:56.340Z,31.07
2019-02-20T05:15:01.492Z,78.73
2019-02-20T05:18:06.696Z,37.27
2019-02-20T05:21:11.845Z,37.60
2019-02-20T05:24:24.534Z,17.10
2019-02-20T05:27:23.954Z,18.90
2019-02-20T05:30:29.108Z,15.60
2019-02-20T05:33:34.443Z,22.30
2019-02-20T05:36:39.649Z,30.40
2019-02-20T05:39:44.869Z,29.70
2019-02-20T05:42:50.047Z,39.73
2019-02-20T05:45:55.259Z,34.50
2019-02-20T05:49:00.611Z,46.37
2019-02-20T05:52:05.861Z,33.07
2019-02-20T05:55:11.036Z,50.93
2019-02-20T05:58:16.145Z,62.53
2019-02-20T06:01:21.354Z,57.33
2019-02-20T06:04:27.560Z,38.07
2019-02-20T06:07:32.758Z,84.90
2019-02-20T06:10:37.896Z,61.00
2019-02-20T06:13:43.073Z,35.93
2019-02-20T06:16:48.171Z,45.67
2019-02-20T06:19:56.400Z,47.67
2019-02-20T06:23:01.569Z,42.23
2019-02-20T06:26:06.729Z,64.43
2019-02-20T06:29:13.001Z,97.20
2019-02-20T06:32:18.219Z,114.80
2019-02-20T06:35:23.413Z,132.13
2019-02-20T06:38:28.535Z,197.63
2019-02-20T06:41:39.151Z,158.93
2019-02-20T06:44:40.600Z,113.47
2019-02-20T06:47:45.796Z,72.23
2019-02-20T06:50:50.920Z,47.20
2019-02-20T06:53:56.066Z,64.53
2019-02-20T06:57:01.269Z,58.73
2019-02-20T07:00:07.140Z,36.40
2019-02-20T07:03:12.309Z,54.23
2019-02-20T07:06:43.350Z,102.43
2019-02-20T07:10:40.887Z,92.30
2019-02-20T07:14:17.103Z,81.03
2019-02-20T07:17:51.470Z,102.70
2019-02-20T07:21:52.902Z,54.10
2019-02-20T07:25:14.003Z,93.87
2019-02-20T07:28:52.291Z,72.30
2019-02-20T07:31:57.431Z,130.87
2019-02-20T07:35:02.564Z,52.90
2019-02-20T07:38:07.776Z,57.40
2019-02-20T07:41:12.980Z,44.67
2019-02-20T07:44:18.098Z,59.73
2019-02-20T07:47:23.227Z,54.77
2019-02-20T07:50:28.426Z,67.87
2019-02-20T07:53:33.539Z,41.13
2019-02-20T07:56:38.682Z,37.17
2019-02-20T07:59:43.828Z,26.63
2019-02-20T08:02:48.939Z,32.43
2019-02-20T08:05:54.149Z,32.00
2019-02-20T08:08:59.713Z,32.43
2019-02-20T08:12:04.870Z,27.60
2019-02-20T08:15:11.631Z,23.13
2019-02-20T08:18:16.735Z,21.73
2019-02-20T08:21:21.890Z,24.77
2019-02-20T08:24:26.986Z,26.73
2019-02-20T08:27:32.144Z,28.97
2019-02-20T08:30:37.274Z,27.67
2019-02-20T08:33:42.452Z,27.17
2019-02-20T08:36:47.574Z,21.77
2019-02-20T08:39:52.789Z,28.37
2019-02-20T08:42:57.956Z,28.23
2019-02-20T08:46:03.113Z,22.07
2019-02-20T08:49:08.226Z,24.60
2019-02-20T08:52:13.374Z,25.10
2019-02-20T08:55:19.018Z,23.83
2019-02-20T08:58:24.429Z,24.17
2019-02-20T09:01:29.615Z,23.07
2019-02-20T09:04:34.763Z,29.07
2019-02-20T09:07:39.934Z,28.33
2019-02-20T09:10:45.055Z,30.33
2019-02-20T09:13:50.221Z,23.73
2019-02-20T09:16:55.390Z,25.73
2019-02-20T09:20:00.546Z,31.07
2019-02-20T09:23:05.788Z,27.70
2019-02-20T09:26:11.019Z,27.83
2019-02-20T09:29:16.172Z,23.77
2019-02-20T09:32:21.351Z,26.10
2019-02-20T09:35:26.605Z,26.27
2019-02-20T09:38:31.709Z,25.73
2019-02-20T09:41:36.873Z,22.90
2019-02-20T09:44:49.467Z,20.53
2019-02-20T09:47:54.645Z,22.47
2019-02-20T09:50:59.869Z,18.33
2019-02-20T09:54:05.046Z,17.73
2019-02-20T09:57:10.196Z,17.53
2019-02-20T10:00:16.005Z,15.80
2019-02-20T10:03:21.210Z,17.60
2019-02-20T10:06:26.368Z,16.87
2019-02-20T10:09:31.547Z,17.20
2019-02-20T10:12:36.754Z,16.83
2019-02-20T10:15:42.021Z,20.90
2019-02-20T10:18:47.205Z,18.83
2019-02-20T10:21:53.438Z,52.80
2019-02-20T10:24:58.598Z,25.67
2019-02-20T10:28:03.766Z,18.83
2019-02-20T10:31:08.980Z,19.40
2019-02-20T10:34:14.273Z,16.97
2019-02-20T10:37:19.502Z,17.77
2019-02-20T10:40:24.772Z,20.03
2019-02-20T10:43:30.015Z,20.20
2019-02-20T10:46:35.173Z,20.67
2019-02-20T10:49:40.348Z,21.00
2019-02-20T10:52:45.509Z,20.00
2019-02-20T10:55:50.687Z,18.73
2019-02-20T10:58:55.805Z,20.67
2019-02-20T11:02:00.989Z,16.93
2019-02-20T11:05:07.433Z,18.47
2019-02-20T11:08:12.663Z,18.20
2019-02-20T11:11:17.825Z,20.90
2019-02-20T11:14:23.054Z,18.03
2019-02-20T11:17:29.362Z,14.77
2019-02-20T11:20:34.575Z,12.87
2019-02-20T11:23:39.786Z,15.57
2019-02-20T11:26:53.181Z,15.57
2019-02-20T11:29:51.763Z,16.13
2019-02-20T11:32:56.901Z,10.83
2019-02-20T11:36:02.054Z,12.40
2019-02-20T11:39:07.528Z,17.93
2019-02-20T11:42:13.786Z,12.17
2019-02-20T11:45:19.024Z,13.37
2019-02-20T11:48:24.287Z,16.93
2019-02-20T11:51:29.466Z,13.47
2019-02-20T11:54:34.627Z,14.90
2019-02-20T11:57:39.901Z,13.77
2019-02-20T12:00:45.035Z,14.50
2019-02-20T12:03:50.185Z,13.70
2019-02-20T12:06:55.371Z,11.40
2019-02-20T12:10:00.507Z,14.40
2019-02-20T12:13:05.748Z,12.43
2019-02-20T12:16:10.879Z,15.47
2019-02-20T12:19:16.003Z,12.27
2019-02-20T12:22:21.181Z,15.33
2019-02-20T12:25:26.343Z,13.00
2019-02-20T12:28:31.556Z,13.27
2019-02-20T12:31:37.814Z,12.67
2019-02-20T12:34:44.088Z,9.53
2019-02-20T12:37:49.327Z,16.27
2019-02-20T12:40:54.520Z,16.70
2019-02-20T12:43:59.732Z,10.53
2019-02-20T12:47:04.868Z,9.87
2019-02-20T12:50:10.301Z,11.07
2019-02-20T12:53:15.464Z,11.77
2019-02-20T12:56:20.713Z,8.03
2019-02-20T12:59:25.864Z,10.53
2019-02-20T13:02:31.087Z,9.87
2019-02-20T13:05:36.374Z,9.00
2019-02-20T13:08:41.573Z,11.60
2019-02-20T13:11:46.683Z,9.13
2019-02-20T13:14:51.875Z,7.23
2019-02-20T13:17:57.032Z,9.47
2019-02-20T13:21:02.411Z,6.50
2019-02-20T13:24:07.577Z,6.57
2019-02-20T13:27:12.748Z,7.77
2019-02-20T13:30:17.898Z,7.90
2019-02-20T13:33:23.145Z,7.47
2019-02-20T13:36:28.369Z,5.43
2019-02-20T13:39:33.576Z,6.90
2019-02-20T13:42:38.735Z,4.60
2019-02-20T13:45:43.968Z,7.97
2019-02-20T13:48:49.061Z,8.63
2019-02-20T13:51:54.261Z,8.03
2019-02-20T13:54:59.383Z,6.10
2019-02-20T13:58:05.628Z,6.27
2019-02-20T14:01:10.801Z,8.23
2019-02-20T14:04:15.966Z,9.33
2019-02-20T14:07:21.116Z,6.23
2019-02-20T14:10:26.301Z,6.93
2019-02-20T14:13:31.517Z,9.77
2019-02-20T14:16:36.674Z,6.77
2019-02-20T14:19:41.828Z,7.27
2019-02-20T14:22:47.017Z,7.03
2019-02-20T14:25:52.160Z,7.93
2019-02-20T14:28:57.331Z,7.60
2019-02-20T14:32:02.501Z,8.63
2019-02-20T14:35:08.277Z,10.03
2019-02-20T14:38:13.836Z,10.13
2019-02-20T14:41:21.399Z,9.40
2019-02-20T14:44:26.655Z,8.13
2019-02-20T14:47:32.189Z,7.87
2019-02-20T14:50:37.410Z,7.43
2019-02-20T14:53:42.531Z,9.13
2019-02-20T14:56:47.702Z,6.93
2019-02-20T14:59:52.822Z,8.37
2019-02-20T15:02:58.200Z,7.60
2019-02-20T15:06:03.380Z,9.70
2019-02-20T15:09:08.481Z,9.93
2019-02-20T15:12:15.258Z,4.87
2019-02-20T15:15:20.432Z,6.00
2019-02-20T15:18:25.669Z,11.23
2019-02-20T15:21:30.912Z,6.03
2019-02-20T15:24:36.034Z,6.03
2019-02-20T15:27:41.190Z,5.47
2019-02-20T15:30:46.310Z,6.50
2019-02-20T15:33:51.496Z,6.83
2019-02-20T15:36:56.701Z,6.57
2019-02-20T15:40:01.833Z,5.63
2019-02-20T15:43:07.360Z,6.20
2019-02-20T15:46:13.072Z,4.80
2019-02-20T15:49:18.202Z,5.57
2019-02-20T15:52:23.364Z,7.33
2019-02-20T15:55:28.760Z,7.50
2019-02-20T15:58:33.949Z,7.97
2019-02-20T16:01:39.062Z,8.13
2019-02-20T16:04:45.453Z,8.63
2019-02-20T16:07:50.520Z,6.60
2019-02-20T16:10:55.672Z,6.90
2019-02-20T16:14:00.796Z,7.03
2019-02-20T16:17:06.013Z,10.70
2019-02-20T16:20:11.883Z,8.40
2019-02-20T16:23:18.384Z,4.87
2019-02-20T16:26:23.554Z,6.50
2019-02-20T16:29:28.664Z,5.63
2019-02-20T16:32:33.847Z,5.70
2019-02-20T16:35:39.008Z,4.97
2019-02-20T16:38:44.198Z,6.67
2019-02-20T16:41:49.397Z,5.50
2019-02-20T16:44:54.585Z,4.13
2019-02-20T16:47:59.752Z,6.10
2019-02-20T16:51:04.946Z,6.27
2019-02-20T16:54:10.113Z,4.60
2019-02-20T16:57:15.307Z,4.67
2019-02-20T17:00:21.558Z,4.40
2019-02-20T17:03:27.071Z,4.80
2019-02-20T17:06:32.404Z,10.13
2019-02-20T17:09:37.578Z,24.07
2019-02-20T17:12:43.059Z,5.00
2019-02-20T17:15:48.654Z,15.20
2019-02-20T17:18:53.815Z,31.27
2019-02-20T17:21:58.946Z,82.57
2019-02-20T17:25:04.264Z,54.80
2019-02-20T17:28:09.403Z,7.20
2019-02-20T17:31:14.569Z,14.03
2019-02-20T17:34:19.728Z,6.90
2019-02-20T17:37:24.917Z,4.17
2019-02-20T17:40:30.079Z,4.13
2019-02-20T17:43:35.247Z,9.80
2019-02-20T17:46:40.383Z,11.87
2019-02-20T17:49:45.563Z,24.83
2019-02-20T17:52:50.687Z,11.57
2019-02-20T17:55:55.884Z,22.10
2019-02-20T17:59:01.018Z,28.20
2019-02-20T18:02:06.592Z,22.63
2019-02-20T18:05:13.671Z,23.93
2019-02-20T18:08:18.682Z,14.67
2019-02-20T18:11:23.809Z,20.03
2019-02-20T18:14:30.015Z,9.90
2019-02-20T18:17:35.211Z,13.13
2019-02-20T18:20:40.407Z,18.47
2019-02-20T18:23:45.774Z,9.73
2019-02-20T18:26:51.027Z,12.57
2019-02-20T18:29:56.203Z,12.70
2019-02-20T18:33:01.453Z,14.53
2019-02-20T18:36:06.823Z,16.03
2019-02-20T18:39:12.095Z,12.03
2019-02-20T18:42:17.669Z,16.83
2019-02-20T18:45:23.920Z,13.00
2019-02-20T18:48:29.066Z,11.33
2019-02-20T18:51:35.296Z,15.13
2019-02-20T18:54:40.517Z,14.73
2019-02-20T18:57:45.658Z,13.87
2019-02-20T19:00:50.817Z,9.90
2019-02-20T19:03:56.743Z,23.43
2019-02-20T19:07:12.660Z,14.50
2019-02-20T19:10:37.031Z,23.73
2019-02-20T19:14:15.981Z,15.17
2019-02-20T19:18:08.009Z,16.00
2019-02-20T19:21:51.305Z,28.93
2019-02-20T19:25:45.546Z,20.07
2019-02-20T19:29:27.745Z,28.07
2019-02-20T19:32:50.870Z,35.97
2019-02-20T19:37:04.848Z,18.37
2019-02-20T19:40:36.127Z,23.63
2019-02-20T19:44:18.529Z,20.23
2019-02-20T19:47:45.374Z,12.97
2019-02-20T19:51:14.861Z,12.93
2019-02-20T19:54:36.502Z,16.40
2019-02-20T19:58:17.564Z,9.53
2019-02-20T20:02:27.747Z,11.97
2019-02-20T20:06:13.261Z,12.63
2019-02-20T20:09:47.026Z,12.03
2019-02-20T20:13:32.080Z,14.23
2019-02-20T20:17:00.376Z,16.07
2019-02-20T20:20:20.336Z,14.30
2019-02-20T20:23:53.037Z,16.20
2019-02-20T20:27:29.556Z,18.93
2019-02-20T20:31:12.615Z,14.70
2019-02-20T20:35:10.924Z,17.57
2019-02-20T20:38:27.600Z,13.57
2019-02-20T20:41:58.103Z,9.90
2019-02-20T20:45:33.263Z,15.77
2019-02-20T20:49:25.400Z,9.77
2019-02-20T20:52:50.015Z,8.90
2019-02-20T20:56:57.725Z,11.23
2019-02-20T21:00:44.118Z,13.17
2019-02-20T21:04:21.656Z,14.37
2019-02-20T21:08:09.301Z,17.10
2019-02-20T21:12:13.867Z,18.63
2019-02-20T21:15:53.771Z,12.57
2019-02-20T21:19:26.516Z,13.30
2019-02-20T21:23:21.766Z,13.37
2019-02-20T21:26:52.455Z,16.87
2019-02-20T21:30:25.816Z,15.77
2019-02-20T21:33:48.204Z,13.33
2019-02-20T21:37:30.059Z,12.90
2019-02-20T21:41:01.125Z,16.50
2019-02-20T21:44:43.311Z,15.73
2019-02-20T21:48:35.492Z,13.50
2019-02-20T21:52:26.447Z,12.37
2019-02-20T21:56:10.436Z,15.43
2019-02-20T21:59:42.037Z,13.73
2019-02-20T22:02:58.822Z,15.17
2019-02-20T22:06:27.167Z,13.40
2019-02-20T22:09:57.566Z,13.27
2019-02-20T22:13:20.915Z,16.03
2019-02-20T22:17:25.347Z,15.97
2019-02-20T22:21:08.684Z,14.33
2019-02-20T22:24:31.610Z,14.10
2019-02-20T22:28:17.730Z,12.40
2019-02-20T22:32:07.710Z,13.37
2019-02-20T22:35:48.842Z,21.97
2019-02-20T22:39:40.978Z,23.87
2019-02-20T22:43:25.600Z,16.83
2019-02-20T22:46:48.407Z,19.90
2019-02-20T22:50:25.699Z,18.70
2019-02-20T22:53:55.584Z,20.03
2019-02-20T22:57:37.598Z,21.97
2019-02-20T23:01:38.905Z,20.17
2019-02-20T23:05:37.364Z,20.73
2019-02-20T23:09:14.964Z,21.30
2019-02-20T23:13:19.693Z,19.30
2019-02-20T23:16:24.859Z,21.70
2019-02-20T23:19:30.159Z,20.13
2019-02-20T23:22:35.263Z,20.50
2019-02-20T23:25:40.432Z,18.73
2019-02-20T23:28:46.002Z,18.30
2019-02-20T23:31:51.130Z,18.77
2019-02-20T23:34:56.305Z,20.60
2019-02-20T23:38:01.428Z,19.23
2019-02-20T23:41:07.763Z,19.37
2019-02-20T23:44:12.855Z,17.97
2019-02-20T23:47:18.137Z,22.23
2019-02-20T23:50:23.332Z,21.30
2019-02-20T23:53:28.543Z,17.07
2019-02-20T23:56:33.847Z,20.33
2019-02-20T23:59:39.076Z,16.83
